createdAt,value
2023-06-17T00:01:18.869Z,101873.06
2023-06-17T00:03:45.875Z,101869.91
2023-06-17T00:06:12.571Z,101876.25
2023-06-17T00:08:39.189Z,101870.97
2023-06-17T00:11:05.731Z,101870.97
2023-06-17T00:13:33.730Z,101876.50
2023-06-17T00:16:00.377Z,101870.50
2023-06-17T00:18:27.438Z,101872.88
2023-06-17T00:20:54.619Z,101869.38
2023-06-17T00:23:22.122Z,101865.41
2023-06-17T00:25:49.891Z,101870.25
2023-06-17T00:28:16.920Z,101862.25
2023-06-17T00:30:46.673Z,101860.59
2023-06-17T00:33:13.455Z,101858.63
2023-06-17T00:35:39.981Z,101848.31
2023-06-17T00:38:06.509Z,101845.53
2023-06-17T00:40:33.035Z,101852.69
2023-06-17T00:42:59.746Z,101847.41
2023-06-17T00:45:26.321Z,101848.44
2023-06-17T00:47:53.207Z,101833.84
2023-06-17T00:50:20.664Z,101845.38
2023-06-17T00:52:53.031Z,101832.75
2023-06-17T00:55:19.760Z,101835.44
2023-06-17T00:57:48.645Z,101846.94
2023-06-17T01:00:16.103Z,101838.63
2023-06-17T01:02:45.317Z,101839.94
2023-06-17T01:05:14.082Z,101829.63
2023-06-17T01:08:04.144Z,101836.81
2023-06-17T01:10:39.635Z,101837.28
2023-06-17T01:13:06.417Z,101838.47
2023-06-17T01:15:37.669Z,101837.63
2023-06-17T01:18:06.177Z,101833.50
2023-06-17T01:20:33.920Z,101835.66
2023-06-17T01:23:02.336Z,101831.34
2023-06-17T01:25:32.803Z,101835.53
2023-06-17T01:28:01.849Z,101835.53
2023-06-17T01:30:29.976Z,101839.34
2023-06-17T01:33:01.230Z,101842.34
2023-06-17T01:35:37.564Z,101841.34
2023-06-17T01:38:16.699Z,101841.22
2023-06-17T01:40:45.121Z,101837.38
2023-06-17T01:43:16.888Z,101842.19
2023-06-17T01:45:44.061Z,101842.84
2023-06-17T01:48:10.802Z,101841.69
2023-06-17T01:50:37.409Z,101839.03
2023-06-17T01:53:03.963Z,101845.50
2023-06-17T01:55:30.561Z,101842.53
2023-06-17T01:57:57.123Z,101832.72
2023-06-17T02:00:23.828Z,101836.88
2023-06-17T02:02:50.897Z,101830.41
2023-06-17T02:05:17.469Z,101836.03
2023-06-17T02:07:43.966Z,101830.38
2023-06-17T02:10:10.844Z,101833.19
2023-06-17T02:12:37.458Z,101831.38
2023-06-17T02:15:04.333Z,101831.38
2023-06-17T02:17:31.063Z,101836.53
2023-06-17T02:19:57.594Z,101838.84
2023-06-17T02:22:24.141Z,101829.38
2023-06-17T02:24:50.794Z,101830.53
2023-06-17T02:27:17.874Z,101829.72
2023-06-17T02:29:45.501Z,101826.53
2023-06-17T02:32:12.182Z,101836.38
2023-06-17T02:34:38.739Z,101820.06
2023-06-17T02:37:05.784Z,101826.06
2023-06-17T02:39:32.284Z,101812.91
2023-06-17T02:41:58.858Z,101817.75
2023-06-17T02:44:25.364Z,101816.56
2023-06-17T02:46:52.036Z,101817.06
2023-06-17T02:49:19.001Z,101809.09
2023-06-17T02:51:45.586Z,101824.03
2023-06-17T02:54:12.639Z,101818.19
2023-06-17T02:56:39.366Z,101817.84
2023-06-17T02:59:08.948Z,101825.00
2023-06-17T03:01:40.485Z,101809.38
2023-06-17T03:04:07.342Z,101807.19
2023-06-17T03:06:35.251Z,101815.69
2023-06-17T03:09:04.369Z,101813.19
2023-06-17T03:11:30.952Z,101802.41
2023-06-17T03:13:57.519Z,101812.72
2023-06-17T03:16:27.129Z,101805.53
2023-06-17T03:18:53.660Z,101813.34
2023-06-17T03:21:20.733Z,101813.13
2023-06-17T03:23:49.610Z,101806.84
2023-06-17T03:26:17.206Z,101800.38
2023-06-17T03:28:43.821Z,101814.63
2023-06-17T03:31:11.946Z,101814.09
2023-06-17T03:33:38.582Z,101805.47
2023-06-17T03:36:05.492Z,101794.69
2023-06-17T03:38:31.998Z,101795.66
2023-06-17T03:40:58.525Z,101810.28
2023-06-17T03:43:25.020Z,101809.66
2023-06-17T03:45:51.614Z,101813.78
2023-06-17T03:48:18.197Z,101802.84
2023-06-17T03:50:44.773Z,101799.72
2023-06-17T03:53:11.592Z,101804.84
2023-06-17T03:55:38.087Z,101811.84
2023-06-17T03:58:04.680Z,101805.41
2023-06-17T04:00:31.226Z,101810.06
2023-06-17T04:02:57.933Z,101804.75
2023-06-17T04:05:32.280Z,101799.47
2023-06-17T04:08:00.002Z,101805.44
2023-06-17T04:10:27.472Z,101808.78
2023-06-17T04:12:54.133Z,101800.63
2023-06-17T04:15:20.779Z,101798.47
2023-06-17T04:17:47.342Z,101791.97
2023-06-17T04:20:13.988Z,101804.63
2023-06-17T04:22:41.990Z,101804.81
2023-06-17T04:25:11.697Z,101805.13
2023-06-17T04:27:39.781Z,101799.81
2023-06-17T04:30:10.450Z,101805.94
2023-06-17T04:32:40.075Z,101805.28
2023-06-17T04:35:07.784Z,101815.06
2023-06-17T04:37:35.474Z,101820.59
2023-06-17T04:40:02.056Z,101817.06
2023-06-17T04:42:29.043Z,101812.72
2023-06-17T04:44:55.544Z,101806.72
2023-06-17T04:47:22.099Z,101811.03
2023-06-17T04:49:49.056Z,101816.19
2023-06-17T04:52:15.604Z,101807.31
2023-06-17T04:54:42.901Z,101809.63
2023-06-17T04:57:09.751Z,101801.59
2023-06-17T04:59:36.297Z,101800.22
2023-06-17T05:02:03.100Z,101794.38
2023-06-17T05:04:29.740Z,101807.78
2023-06-17T05:06:56.396Z,101804.06
2023-06-17T05:09:23.843Z,101798.31
2023-06-17T05:11:50.842Z,101802.06
2023-06-17T05:14:17.502Z,101800.66
2023-06-17T05:16:44.057Z,101805.06
2023-06-17T05:19:10.651Z,101802.78
2023-06-17T05:21:37.158Z,101806.69
2023-06-17T05:24:04.124Z,101793.09
2023-06-17T05:26:30.931Z,101799.28
2023-06-17T05:28:58.196Z,101792.94
2023-06-17T05:31:24.805Z,101802.44
2023-06-17T05:33:51.427Z,101789.25
2023-06-17T05:36:17.934Z,101795.72
2023-06-17T05:38:44.506Z,101795.69
2023-06-17T05:41:11.048Z,101791.13
2023-06-17T05:43:37.615Z,101789.88
2023-06-17T05:46:04.120Z,101788.19
2023-06-17T05:48:30.792Z,101792.06
2023-06-17T05:50:57.405Z,101798.19
2023-06-17T05:53:23.980Z,101787.22
2023-06-17T05:55:50.579Z,101799.94
2023-06-17T05:58:17.133Z,101788.09
2023-06-17T06:00:43.763Z,101799.34
2023-06-17T06:03:10.316Z,101796.97
2023-06-17T06:05:37.460Z,101786.50
2023-06-17T06:08:04.077Z,101796.34
2023-06-17T06:10:30.827Z,101795.59
2023-06-17T06:12:57.348Z,101792.13
2023-06-17T06:15:24.668Z,101788.84
2023-06-17T06:17:51.344Z,101792.78
2023-06-17T06:20:17.962Z,101793.44
2023-06-17T06:22:44.623Z,101800.47
2023-06-17T06:25:11.421Z,101796.38
2023-06-17T06:27:37.917Z,101793.03
2023-06-17T06:30:04.802Z,101789.13
2023-06-17T06:32:31.765Z,101784.56
2023-06-17T06:34:58.337Z,101782.03
2023-06-17T06:37:24.952Z,101780.72
2023-06-17T06:39:51.444Z,101789.59
2023-06-17T06:42:18.008Z,101782.56
2023-06-17T06:44:44.484Z,101789.34
2023-06-17T06:47:11.000Z,101782.03
2023-06-17T06:49:37.581Z,101781.94
2023-06-17T06:52:04.997Z,101787.25
2023-06-17T06:54:31.519Z,101790.53
2023-06-17T06:56:58.226Z,101792.91
2023-06-17T06:59:24.797Z,101780.63
2023-06-17T07:01:51.262Z,101778.50
2023-06-17T07:04:17.853Z,101783.34
2023-06-17T07:06:44.387Z,101780.97
2023-06-17T07:09:11.007Z,101784.19
2023-06-17T07:11:37.571Z,101788.50
2023-06-17T07:14:04.123Z,101789.19
2023-06-17T07:16:30.898Z,101794.88
2023-06-17T07:18:57.649Z,101781.94
2023-06-17T07:21:24.161Z,101782.03
2023-06-17T07:23:51.881Z,101780.69
2023-06-17T07:26:18.411Z,101775.44
2023-06-17T07:28:44.968Z,101773.72
2023-06-17T07:31:11.944Z,101769.44
2023-06-17T07:33:38.539Z,101780.28
2023-06-17T07:36:05.154Z,101771.63
2023-06-17T07:38:34.052Z,101771.31
2023-06-17T07:41:01.310Z,101769.94
2023-06-17T07:43:27.848Z,101774.34
2023-06-17T07:45:54.431Z,101776.50
2023-06-17T07:48:21.237Z,101776.19
2023-06-17T07:50:47.866Z,101772.31
2023-06-17T07:53:14.586Z,101768.66
2023-06-17T07:55:41.059Z,101758.34
2023-06-17T07:58:07.787Z,101770.00
2023-06-17T08:00:34.286Z,101760.97
2023-06-17T08:03:01.346Z,101767.66
2023-06-17T08:05:28.024Z,101763.66
2023-06-17T08:07:54.709Z,101756.97
2023-06-17T08:10:21.606Z,101762.25
2023-06-17T08:12:49.694Z,101756.84
2023-06-17T08:15:16.338Z,101769.63
2023-06-17T08:17:43.360Z,101762.22
2023-06-17T08:20:11.301Z,101763.75
2023-06-17T08:22:38.090Z,101766.88
2023-06-17T08:25:04.794Z,101754.41
2023-06-17T08:27:32.370Z,101755.47
2023-06-17T08:29:59.899Z,101756.38
2023-06-17T08:32:26.589Z,101773.34
2023-06-17T08:34:53.123Z,101760.47
2023-06-17T08:37:19.635Z,101750.31
2023-06-17T08:39:46.135Z,101758.53
2023-06-17T08:42:12.874Z,101754.16
2023-06-17T08:44:44.318Z,101763.28
2023-06-17T08:47:16.150Z,101756.31
2023-06-17T08:49:45.018Z,101748.94
2023-06-17T08:52:14.709Z,101751.25
2023-06-17T08:54:41.970Z,101754.16
2023-06-17T08:57:13.800Z,101754.16
2023-06-17T08:59:43.715Z,101743.06
2023-06-17T09:02:11.948Z,101742.56
2023-06-17T09:04:38.702Z,101752.41
2023-06-17T09:07:05.781Z,101751.69
2023-06-17T09:09:32.334Z,101753.16
2023-06-17T09:12:03.130Z,101751.09
2023-06-17T09:14:29.689Z,101752.59
2023-06-17T09:16:56.301Z,101748.63
2023-06-17T09:19:23.928Z,101747.31
2023-06-17T09:21:50.540Z,101748.59
2023-06-17T09:24:17.225Z,101751.22
2023-06-17T09:26:45.226Z,101751.38
2023-06-17T09:29:13.592Z,101757.28
2023-06-17T09:31:59.146Z,101749.72
2023-06-17T09:34:27.762Z,101755.63
2023-06-17T09:37:01.355Z,101744.75
2023-06-17T09:39:33.390Z,101745.91
2023-06-17T09:42:10.165Z,101745.47
2023-06-17T09:44:40.847Z,101744.13
2023-06-17T09:47:09.383Z,101746.31
2023-06-17T09:49:37.918Z,101745.09
2023-06-17T09:52:10.346Z,101750.66
2023-06-17T09:54:37.921Z,101741.38
2023-06-17T09:57:08.692Z,101742.25
2023-06-17T09:59:35.322Z,101743.47
2023-06-17T10:02:01.866Z,101751.72
2023-06-17T10:04:28.473Z,101744.25
2023-06-17T10:06:55.369Z,101732.91
2023-06-17T10:09:22.239Z,101735.97
2023-06-17T10:11:52.489Z,101739.25
2023-06-17T10:14:24.669Z,101740.63
2023-06-17T10:16:52.255Z,101736.59
2023-06-17T10:19:23.742Z,101727.66
2023-06-17T10:21:53.964Z,101729.63
2023-06-17T10:24:21.551Z,101731.88
2023-06-17T10:26:52.245Z,101727.34
2023-06-17T10:29:18.873Z,101708.63
2023-06-17T10:31:45.557Z,101718.97
2023-06-17T10:34:16.765Z,101715.19
2023-06-17T10:36:43.584Z,101717.66
2023-06-17T10:39:14.962Z,101711.69
2023-06-17T10:41:41.464Z,101708.75
2023-06-17T10:44:29.281Z,101708.75
2023-06-17T10:46:57.468Z,101693.03
2023-06-17T10:49:24.598Z,101697.47
2023-06-17T10:51:58.512Z,101693.69
2023-06-17T10:54:30.884Z,101692.84
2023-06-17T10:56:58.199Z,101689.06
2023-06-17T10:59:26.765Z,101685.59
2023-06-17T11:02:01.323Z,101685.88
2023-06-17T11:04:29.595Z,101680.75
2023-06-17T11:06:56.514Z,101675.84
2023-06-17T11:09:30.558Z,101681.34
2023-06-17T11:11:58.850Z,101681.91
2023-06-17T11:14:28.895Z,101675.63
2023-06-17T11:16:55.719Z,101674.28
2023-06-17T11:19:23.168Z,101675.38
2023-06-17T11:22:04.202Z,101679.72
2023-06-17T11:24:34.217Z,101672.66
2023-06-17T11:27:01.721Z,101668.28
2023-06-17T11:29:30.520Z,101665.28
2023-06-17T11:32:01.350Z,101665.00
2023-06-17T11:34:33.186Z,101664.44
2023-06-17T11:37:01.941Z,101662.53
2023-06-17T11:39:30.421Z,101648.09
2023-06-17T11:42:04.225Z,101653.00
2023-06-17T11:44:35.417Z,101653.53
2023-06-17T11:47:10.116Z,101642.34
2023-06-17T11:49:42.694Z,101637.97
2023-06-17T11:52:13.124Z,101636.88
2023-06-17T11:54:47.055Z,101637.69
2023-06-17T11:57:26.301Z,101624.06
2023-06-17T11:59:58.424Z,101627.88
2023-06-17T12:02:27.987Z,101624.34
2023-06-17T12:04:54.868Z,101622.41
2023-06-17T12:07:21.833Z,101622.38
2023-06-17T12:09:54.215Z,101611.94
2023-06-17T12:12:28.035Z,101621.72
2023-06-17T12:15:00.950Z,101621.50
2023-06-17T12:17:44.871Z,101620.97
2023-06-17T12:20:21.612Z,101627.72
2023-06-17T12:22:50.645Z,101625.50
2023-06-17T12:25:17.235Z,101620.34
2023-06-17T12:27:44.526Z,101608.59
2023-06-17T12:30:12.730Z,101618.38
2023-06-17T12:32:41.198Z,101617.72
2023-06-17T12:35:10.122Z,101608.47
2023-06-17T12:37:39.543Z,101607.38
2023-06-17T12:40:07.743Z,101599.72
2023-06-17T12:42:34.246Z,101593.75
2023-06-17T12:45:01.082Z,101596.44
2023-06-17T12:47:27.801Z,101596.34
2023-06-17T12:49:54.624Z,101601.47
2023-06-17T12:52:21.120Z,101593.50
2023-06-17T12:54:57.491Z,101590.59
2023-06-17T12:57:24.006Z,101587.63
2023-06-17T12:59:50.561Z,101581.56
2023-06-17T13:02:17.212Z,101579.34
2023-06-17T13:04:43.925Z,101578.53
2023-06-17T13:07:11.309Z,101579.88
2023-06-17T13:09:37.897Z,101581.84
2023-06-17T13:12:05.284Z,101578.53
2023-06-17T13:14:31.814Z,101577.44
2023-06-17T13:16:58.522Z,101578.50
2023-06-17T13:19:25.108Z,101575.22
2023-06-17T13:21:51.728Z,101572.41
2023-06-17T13:24:18.342Z,101563.13
2023-06-17T13:26:44.986Z,101562.66
2023-06-17T13:29:11.738Z,101573.78
2023-06-17T13:31:38.358Z,101569.66
2023-06-17T13:34:05.320Z,101578.34
2023-06-17T13:36:32.968Z,101568.19
2023-06-17T13:38:59.899Z,101561.28
2023-06-17T13:41:31.671Z,101563.22
2023-06-17T13:43:58.431Z,101554.59
2023-06-17T13:46:25.081Z,101557.44
2023-06-17T13:48:51.895Z,101554.25
2023-06-17T13:51:19.235Z,101555.28
2023-06-17T13:53:45.995Z,101560.78
2023-06-17T13:56:12.912Z,101558.34
2023-06-17T13:58:39.685Z,101548.53
2023-06-17T14:01:06.277Z,101553.69
2023-06-17T14:03:32.840Z,101551.38
2023-06-17T14:05:59.612Z,101548.03
2023-06-17T14:08:26.219Z,101548.66
2023-06-17T14:10:52.787Z,101549.59
2023-06-17T14:13:19.322Z,101544.22
2023-06-17T14:15:45.978Z,101553.47
2023-06-17T14:18:12.880Z,101547.69
2023-06-17T14:20:40.523Z,101537.75
2023-06-17T14:23:08.849Z,101542.69
2023-06-17T14:25:36.077Z,101544.50
2023-06-17T14:28:02.789Z,101532.38
2023-06-17T14:30:29.320Z,101541.03
2023-06-17T14:32:55.888Z,101533.31
2023-06-17T14:35:22.473Z,101533.72
2023-06-17T14:37:50.047Z,101530.25
2023-06-17T14:40:17.640Z,101535.34
2023-06-17T14:42:44.237Z,101533.59
2023-06-17T14:45:12.733Z,101533.78
2023-06-17T14:47:40.917Z,101530.75
2023-06-17T14:50:09.791Z,101533.50
2023-06-17T14:52:36.362Z,101523.84
2023-06-17T14:55:04.162Z,101521.47
2023-06-17T14:57:33.286Z,101529.53
2023-06-17T15:00:00.696Z,101527.38
2023-06-17T15:02:45.708Z,101520.44
2023-06-17T15:05:12.407Z,101521.91
2023-06-17T15:07:39.066Z,101524.44
2023-06-17T15:10:06.999Z,101520.81
2023-06-17T15:12:33.620Z,101520.69
2023-06-17T15:15:00.349Z,101521.84
2023-06-17T15:17:27.122Z,101524.41
2023-06-17T15:19:53.659Z,101522.63
2023-06-17T15:22:20.253Z,101513.75
2023-06-17T15:24:46.747Z,101519.91
2023-06-17T15:27:13.282Z,101511.16
2023-06-17T15:29:40.422Z,101517.09
2023-06-17T15:32:07.393Z,101520.16
2023-06-17T15:34:33.937Z,101513.84
2023-06-17T15:37:00.807Z,101516.19
2023-06-17T15:39:32.612Z,101509.34
2023-06-17T15:41:59.290Z,101503.72
2023-06-17T15:44:26.012Z,101510.94
2023-06-17T15:46:52.624Z,101510.06
2023-06-17T15:49:20.530Z,101512.50
2023-06-17T15:51:47.025Z,101511.94
2023-06-17T15:54:13.979Z,101507.66
2023-06-17T15:56:40.661Z,101516.50
2023-06-17T15:59:07.429Z,101513.16
2023-06-17T16:01:34.839Z,101513.16
2023-06-17T16:04:40.925Z,101512.69
2023-06-17T16:07:09.700Z,101506.72
2023-06-17T16:09:38.454Z,101511.59
2023-06-17T16:12:06.032Z,101514.38
2023-06-17T16:14:33.587Z,101514.75
2023-06-17T16:17:01.600Z,101506.72
2023-06-17T16:19:28.212Z,101512.31
2023-06-17T16:21:55.619Z,101503.22
2023-06-17T16:24:23.349Z,101501.66
2023-06-17T16:26:50.070Z,101506.09
2023-06-17T16:29:16.799Z,101489.28
2023-06-17T16:31:43.386Z,101510.56
2023-06-17T16:34:09.950Z,101499.44
2023-06-17T16:36:36.891Z,101496.41
2023-06-17T16:39:04.235Z,101495.59
2023-06-17T16:41:30.864Z,101487.44
2023-06-17T16:43:57.412Z,101491.59
2023-06-17T16:46:24.035Z,101500.84
2023-06-17T16:48:50.698Z,101497.03
2023-06-17T16:51:17.220Z,101498.94
2023-06-17T16:53:43.717Z,101491.59
2023-06-17T16:56:10.725Z,101473.84
2023-06-17T16:58:37.622Z,101484.50
2023-06-17T17:01:04.188Z,101482.03
2023-06-17T17:03:30.727Z,101483.66
2023-06-17T17:05:57.483Z,101488.03
2023-06-17T17:08:25.198Z,101489.44
2023-06-17T17:10:51.720Z,101484.78
2023-06-17T17:13:18.306Z,101492.72
2023-06-17T17:15:44.850Z,101489.44
2023-06-17T17:18:11.455Z,101485.59
2023-06-17T17:20:37.990Z,101486.69
2023-06-17T17:23:04.708Z,101489.69
2023-06-17T17:25:31.632Z,101493.25
2023-06-17T17:27:58.188Z,101505.78
2023-06-17T17:30:24.838Z,101503.03
2023-06-17T17:32:51.810Z,101498.94
2023-06-17T17:35:18.955Z,101501.13
2023-06-17T17:37:45.516Z,101494.88
2023-06-17T17:40:12.599Z,101505.16
2023-06-17T17:42:39.458Z,101510.06
2023-06-17T17:45:06.793Z,101497.22
2023-06-17T17:47:33.454Z,101506.22
2023-06-17T17:49:59.999Z,101514.94
2023-06-17T17:52:26.777Z,101507.28
2023-06-17T17:55:01.587Z,101512.44
2023-06-17T17:57:29.171Z,101508.06
2023-06-17T17:59:55.767Z,101510.25
2023-06-17T18:02:22.557Z,101515.44
2023-06-17T18:04:49.199Z,101503.19
2023-06-17T18:07:15.788Z,101512.13
2023-06-17T18:09:42.371Z,101506.09
2023-06-17T18:12:09.026Z,101506.06
2023-06-17T18:14:36.007Z,101508.72
2023-06-17T18:17:03.304Z,101512.81
2023-06-17T18:19:29.941Z,101509.78
2023-06-17T18:21:56.613Z,101509.75
2023-06-17T18:24:23.214Z,101510.28
2023-06-17T18:26:49.768Z,101514.59
2023-06-17T18:29:16.281Z,101513.72
2023-06-17T18:31:42.872Z,101507.72
2023-06-17T18:34:09.419Z,101512.25
2023-06-17T18:36:35.958Z,101519.25
2023-06-17T18:39:02.559Z,101521.94
2023-06-17T18:41:29.066Z,101516.97
2023-06-17T18:43:55.599Z,101516.94
2023-06-17T18:46:22.576Z,101513.34
2023-06-17T18:48:50.895Z,101517.88
2023-06-17T18:51:17.434Z,101513.50
2023-06-17T18:53:44.113Z,101525.09
2023-06-17T18:56:11.175Z,101525.38
2023-06-17T18:58:37.753Z,101529.69
2023-06-17T19:01:04.536Z,101530.72
2023-06-17T19:03:31.164Z,101518.13
2023-06-17T19:05:57.939Z,101526.22
2023-06-17T19:08:24.503Z,101522.00
2023-06-17T19:10:51.583Z,101521.97
2023-06-17T19:13:18.136Z,101528.72
2023-06-17T19:15:44.640Z,101526.47
2023-06-17T19:18:11.142Z,101530.75
2023-06-17T19:20:37.708Z,101533.16
2023-06-17T19:23:04.294Z,101529.81
2023-06-17T19:25:30.792Z,101530.53
2023-06-17T19:27:57.330Z,101537.75
2023-06-17T19:30:24.158Z,101528.19
2023-06-17T19:32:51.271Z,101533.84
2023-06-17T19:35:17.843Z,101529.44
2023-06-17T19:37:44.423Z,101527.50
2023-06-17T19:40:11.762Z,101526.06
2023-06-17T19:42:38.241Z,101528.69
2023-06-17T19:45:05.486Z,101529.47
2023-06-17T19:47:32.551Z,101536.72
2023-06-17T19:50:00.447Z,101522.25
2023-06-17T19:52:27.146Z,101529.81
2023-06-17T19:54:54.251Z,101521.47
2023-06-17T19:57:20.928Z,101528.75
2023-06-17T19:59:47.731Z,101511.28
2023-06-17T20:02:15.286Z,101529.59
2023-06-17T20:04:41.843Z,101516.16
2023-06-17T20:07:08.385Z,101526.09
2023-06-17T20:09:34.872Z,101529.28
2023-06-17T20:12:01.333Z,101538.41
2023-06-17T20:14:28.252Z,101538.00
2023-06-17T20:16:54.789Z,101540.81
2023-06-17T20:19:21.313Z,101537.47
2023-06-17T20:21:47.826Z,101536.31
2023-06-17T20:24:14.468Z,101528.59
2023-06-17T20:26:41.147Z,101540.16
2023-06-17T20:29:07.722Z,101537.38
2023-06-17T20:31:34.227Z,101541.13
2023-06-17T20:34:00.758Z,101532.09
2023-06-17T20:36:27.596Z,101535.94
2023-06-17T20:38:54.103Z,101536.91
2023-06-17T20:41:20.600Z,101520.75
2023-06-17T20:43:47.164Z,101538.25
2023-06-17T20:46:13.851Z,101532.38
2023-06-17T20:48:40.434Z,101534.16
2023-06-17T20:51:09.658Z,101532.19
2023-06-17T20:53:36.170Z,101525.84
2023-06-17T20:56:02.813Z,101533.63
2023-06-17T20:58:29.325Z,101523.28
2023-06-17T21:00:56.061Z,101526.00
2023-06-17T21:03:22.707Z,101531.88
2023-06-17T21:05:49.349Z,101535.16
2023-06-17T21:08:16.190Z,101529.06
2023-06-17T21:10:42.716Z,101533.41
2023-06-17T21:13:09.270Z,101534.13
2023-06-17T21:15:36.094Z,101530.72
2023-06-17T21:18:02.766Z,101535.44
2023-06-17T21:20:29.284Z,101543.44
2023-06-17T21:22:56.359Z,101530.59
2023-06-17T21:25:23.081Z,101526.41
2023-06-17T21:27:49.642Z,101528.06
2023-06-17T21:30:16.272Z,101521.94
2023-06-17T21:32:42.951Z,101526.97
2023-06-17T21:35:09.761Z,101522.06
2023-06-17T21:37:36.378Z,101528.97
2023-06-17T21:40:02.929Z,101520.28
2023-06-17T21:42:29.476Z,101525.09
2023-06-17T21:44:56.000Z,101520.28
2023-06-17T21:47:22.630Z,101524.28
2023-06-17T21:49:49.243Z,101519.69
2023-06-17T21:52:15.780Z,101522.28
2023-06-17T21:54:42.293Z,101529.56
2023-06-17T21:57:09.054Z,101530.63
2023-06-17T21:59:36.038Z,101530.38
2023-06-17T22:02:02.705Z,101524.16
2023-06-17T22:04:29.252Z,101529.56
2023-06-17T22:06:56.963Z,101527.56
2023-06-17T22:09:23.522Z,101534.59
2023-06-17T22:11:50.596Z,101527.81
2023-06-17T22:14:17.091Z,101532.16
2023-06-17T22:16:43.867Z,101531.69
2023-06-17T22:19:10.483Z,101525.09
2023-06-17T22:21:37.123Z,101523.22
2023-06-17T22:24:03.875Z,101535.53
2023-06-17T22:26:30.751Z,101518.66
2023-06-17T22:28:57.450Z,101521.94
2023-06-17T22:31:23.951Z,101524.84
2023-06-17T22:33:50.539Z,101524.84
2023-06-17T22:36:17.181Z,101524.84
2023-06-17T22:38:43.705Z,101529.91
2023-06-17T22:41:10.302Z,101526.84
2023-06-17T22:43:36.814Z,101523.69
2023-06-17T22:46:04.047Z,101526.97
2023-06-17T22:48:30.612Z,101530.00
2023-06-17T22:50:57.391Z,101532.56
2023-06-17T22:53:23.913Z,101521.19
2023-06-17T22:55:50.536Z,101530.13
2023-06-17T22:58:17.069Z,101527.06
2023-06-17T23:00:43.860Z,101523.91
2023-06-17T23:03:10.771Z,101512.75
2023-06-17T23:05:37.565Z,101516.03
2023-06-17T23:08:07.084Z,101517.69
2023-06-17T23:10:33.631Z,101510.66
2023-06-17T23:13:00.467Z,101516.25
2023-06-17T23:15:27.035Z,101515.22
2023-06-17T23:17:53.553Z,101520.13
2023-06-17T23:20:20.555Z,101510.19
2023-06-17T23:22:47.263Z,101524.72
2023-06-17T23:25:16.866Z,101519.41
2023-06-17T23:27:44.448Z,101506.63
2023-06-17T23:30:12.711Z,101516.13
2023-06-17T23:32:39.261Z,101514.75
2023-06-17T23:35:06.045Z,101515.78
2023-06-17T23:37:32.804Z,101513.31
2023-06-17T23:39:59.315Z,101516.00
2023-06-17T23:42:25.908Z,101505.94
2023-06-17T23:44:53.196Z,101506.72
2023-06-17T23:47:19.932Z,101512.72
2023-06-17T23:49:46.636Z,101508.38
2023-06-17T23:52:13.819Z,101507.56
2023-06-17T23:54:41.405Z,101506.63
2023-06-17T23:57:08.306Z,101514.03
2023-06-17T23:59:34.937Z,101510.66
